METAR Data
IDs: Format: Raw Decoded Include TAF

Data at: 0501 UTC 26 Sep 2018

KRME 260453Z AUTO 12005KT 10SM OVC017 16/16 A3002 RMK AO2 SLP165 T01610161 401670094
KRME 260353Z AUTO 14004KT 10SM OVC016 16/16 A3004 RMK AO2 SLP171 T01610161
KRME 260253Z AUTO 13005KT 10SM OVC016 16/16 A3007 RMK AO2 SLP181 60000 T01610161 56009
KRME 260153Z AUTO 11005KT 10SM OVC017 16/16 A3007 RMK AO2 SLP183 T01610161
KRME 260053Z 11007KT 10SM OVC018 16/16 A3008 RMK AO2 RAE2355 SLP185 P0000 T01560156
KRME 252353Z 12007KT 10SM -RA OVC018 16/15 A3010 RMK AO2 RAB36 SLP190 P0000 60004 T01560150 10156 20133 56016
KRME 252253Z 11008KT 10SM OVC020 15/15 A3010 RMK AO2 SLP193 T01500150
KRME 252153Z 12007KT 10SM OVC020 15/15 A3013 RMK AO2 SLP203 T01500150
KRME 252053Z 11008KT 10SM OVC020 15/14 A3014 RMK AO2 SLP206 60004 T01500144 58016
KRME 251953Z 11008KT 10SM FEW008 BKN015 OVC022 14/14 A3017 RMK AO2 RAE45 SLP214 P0002 T01390139
KRME 251943Z 11007KT 10SM -RA SCT009 OVC015 14/14 A3017 RMK AO2 P0002 T01390139
KRME 251858Z 12009KT 3SM -RA BR FEW009 BKN014 OVC020 14/13 A3019 RMK AO2 P0001 T01390133
KRME 251853Z 12010KT 2SM RA BR BKN012 BKN018 OVC024 14/13 A3019 RMK AO2 RAB1755 SLP223 P0002 T01390133
KRME 251849Z 12009KT 2SM RA BR SCT012 BKN020 OVC024 14/13 A3019 RMK AO2 RAB1755 P0002
KRME 251841Z 12010KT 3SM RA BR FEW009 BKN022 OVC028 14/13 A3019 RMK AO2 RAB1755 P0001 T01390133
KRME 251824Z 12010KT 10SM -RA BKN013 BKN022 OVC030 14/13 A3020 RMK AO2 RAB1755 P0000 T01390133
KRME 251753Z 12011G17KT 10SM OVC015 13/13 A3021 RMK AO2 RAE38 SLP230 P0001 60024 T01330128 10133 20100 58029
KRME 251733Z 12012G18KT 10SM -RA FEW011 BKN016 OVC040 13/13 A3022 RMK AO2 P0001 T01330128
KRME 251653Z 11012KT 7SM -RA BKN012 OVC040 13/13 A3024 RMK AO2 SLP241 P0001 T01280128
KRME 251553Z 12009KT 10SM -RA BKN013 OVC019 12/12 A3027 RMK AO2 RAE06B25 SLP251 P0000 T01220122
KRME 251453Z 11010KT 10SM -RA BKN013 BKN055 OVC070 12/11 A3030 RMK AO2 SLP261 P0001 60022 T01170111 58019
KRME 251353Z 11008KT 8SM -RA BKN013 BKN050 OVC060 11/11 A3033 RMK AO2 SLP271 P0008 T01060106
KRME 251253Z 13007KT 4SM +RA BR BKN013 BKN023 OVC047 10/10 A3034 RMK AO2 SLP275 P0013 T01000100
KRME 251211Z 10007KT 3SM RA BR FEW008 OVC013 09/09 A3035 RMK AO2 P0008 T00940094
KRME 251159Z 10009KT 1 3/4SM +RA BR OVC013 09/09 A3035 RMK AO2 P0004 T00940094
KRME 251153Z 11007KT 3SM +RA BR OVC013 10/09 A3036 RMK AO2 SLP281 P0022 60045 70045 T01000094 10117 20094 56010
KRME 251137Z 11008KT 4SM RA BR BKN013 OVC032 09/09 A3035 RMK AO2 P0018 T00940094
KRME 251126Z 11011KT 2 1/2SM +RA BR FEW010 BKN013 OVC045 10/09 A3036 RMK AO2 VIS 2V3 P0015 T01000094
KRME 251053Z 11013G22KT 4SM +RA BR SCT014 BKN050 OVC080 10/09 A3036 RMK AO2 SLP281 P0013 T01000094
KRME 251035Z AUTO 12013G20KT 5SM RA BR BKN014 BKN046 OVC080 10/09 A3037 RMK AO2 P0008 T01000094
KRME 251006Z AUTO 11011KT 6SM RA BR BKN015 BKN041 OVC060 10/09 A3038 RMK AO2 P0001 T01000094
KRME 250953Z AUTO 11008KT 8SM RA SCT017 BKN046 OVC110 10/09 A3038 RMK AO2 SLP287 P0004 T01000094
KRME 250853Z AUTO 10010KT 9SM RA BKN100 OVC120 10/09 A3039 RMK AO2 SLP290 P0005 60006 T01000094 58018
KRME 250753Z AUTO 10013KT 8SM RA BKN050 OVC070 11/09 A3041 RMK AO2 RAB03 SLP297 P0001 T01060089
KRME 250653Z AUTO 11016G21KT 10SM BKN070 OVC085 12/08 A3043 RMK AO2 SLP303 T01170083
KRME 250553Z AUTO 12014G21KT 10SM OVC065 12/08 A3044 RMK AO2 SLP307 T01170083 10128 20117 58008
KRME 250453Z AUTO 12014G22KT 10SM CLR 12/08 A3045 RMK AO2 SLP309 T01170083 401890072
KRME 250353Z AUTO 11012G19KT 10SM FEW032 12/09 A3047 RMK AO2 SLP317 T01170089
KRME 250253Z AUTO 11009KT 10SM CLR 12/09 A3047 RMK AO2 SLP317 T01170089 50004
KRME 250153Z AUTO 11010KT 10SM CLR 12/09 A3047 RMK AO2 SLP318 T01170094
KRME 250053Z 11009KT 10SM CLR 12/09 A3047 RMK AO2 SLP318 T01220094
KRME 242353Z 11009KT 10SM CLR 13/10 A3046 RMK AO2 SLP314 T01280100 10189 20128 50007
KRME 242253Z 12010KT 10SM CLR 14/10 A3046 RMK AO2 SLP315 T01440100
KRME 242153Z 11011KT 10SM CLR 16/11 A3045 RMK AO2 SLP310 T01560106
KRME 242053Z 10010KT 10SM CLR 18/11 A3043 RMK AO2 SLP306 T01780111 56009
KRME 241953Z 10016G22KT 10SM CLR 17/11 A3045 RMK AO2 SLP309 T01720106
KRME 241853Z 09016G21KT 10SM CLR 18/11 A3045 RMK AO2 SLP309 T01830106
KRME 241753Z 13012G17KT 10SM CLR 18/11 A3046 RMK AO2 SLP315 T01830111 10183 20089 58012